Lady Debora — V2QG7 — position and weather

sailwx.info

Track history (hours):
 
Tides and Currents Weather Stations Pressure Air Temp Water Temp Dewpoint Dewpoint Depression Visibility Wind Speed Wind Dir Waves Ship Positions

Lady Debora

Last reported at 2017-Feb-16 22:08 UTC. Time now 2017-Feb-23 09:26 UTC.
Position N 46°16' E 030°54'.

Length 107 m; draft 7 m.

Type: Cargo ship. MMSI: 304010760.

Date/timePositionNaut miles runAvg speedWind from/ knotsBaromVisibWave heightAir tempDewpointWater temp
2017-Feb-16 22:08N 46°16' E 030°54'6 9.6
2017-Feb-16 21:32N 46°22' E 030°55'10 9.6
2017-Feb-16 20:31N 46°32' E 030°56'25 8.4
2017-Feb-16 17:32N 46°35' E 031°32'8 8.2
2017-Feb-16 16:33N 46°36' E 031°44'7 7.0
2017-Feb-16 15:33N 46°34' E 031°53'5 5.0
2017-Feb-16 14:33N 46°33' E 032°00'7 6.7
2017-Feb-16 13:31N 46°32' E 032°10'  
2017-Feb-12 05:33N 46°32' E 032°07'5 0.6
2017-Feb-11 20:21N 46°33' E 031°59'3 4.0
2017-Feb-11 19:34N 46°34' E 031°55'2 1.6
2017-Feb-11 18:33N 46°35' E 031°53'0 0.0
2017-Feb-11 17:33N 46°35' E 031°53'2 1.5
2017-Feb-11 16:32N 46°35' E 031°51'1 1.5
2017-Feb-11 15:33N 46°36' E 031°49'8 8.1
2017-Feb-11 14:32N 46°35' E 031°37'5 0.2
2017-Feb-10 04:14N 46°35' E 031°29'0 0.0
2017-Feb-10 01:13N 46°35' E 031°29'0 0.0
2017-Feb-09 23:30N 46°35' E 031°29'0 0.0
2017-Feb-09 22:28N 46°35' E 031°29'0 0.0
2017-Feb-09 21:27N 46°35' E 031°29'0 0.0
2017-Feb-09 19:20N 46°35' E 031°29'2 0.2
2017-Feb-09 08:28N 46°35' E 031°32'5 3.9
2017-Feb-09 07:05N 46°35' E 031°24'4 6.1
2017-Feb-09 06:28N 46°35' E 031°18'15 7.2
2017-Feb-09 04:21N 46°31' E 030°57'  
Track history (hours):
 
Tides and Currents Weather Stations Pressure Air Temp Water Temp Dewpoint Dewpoint Depression Visibility Wind Speed Wind Dir Waves Ship Positions

Lady Debora

Last reported at 2017-Feb-16 22:08 UTC. Time now 2017-Feb-23 09:26 UTC.
Position N 46°16' E 030°54'.

Length 107 m; draft 7 m.

Type: Cargo ship. MMSI: 304010760.

Date/timePositionNaut miles runAvg speedWind from/ knotsBaromVisibWave heightAir tempDewpointWater temp
2017-Feb-16 22:08N 46°16' E 030°54'6 9.6
2017-Feb-16 21:32N 46°22' E 030°55'10 9.6
2017-Feb-16 20:31N 46°32' E 030°56'25 8.4
2017-Feb-16 17:32N 46°35' E 031°32'8 8.2
2017-Feb-16 16:33N 46°36' E 031°44'7 7.0
2017-Feb-16 15:33N 46°34' E 031°53'5 5.0
2017-Feb-16 14:33N 46°33' E 032°00'7 6.7
2017-Feb-16 13:31N 46°32' E 032°10'  
2017-Feb-12 05:33N 46°32' E 032°07'5 0.6
2017-Feb-11 20:21N 46°33' E 031°59'3 4.0
2017-Feb-11 19:34N 46°34' E 031°55'2 1.6
2017-Feb-11 18:33N 46°35' E 031°53'0 0.0
2017-Feb-11 17:33N 46°35' E 031°53'2 1.5
2017-Feb-11 16:32N 46°35' E 031°51'1 1.5
2017-Feb-11 15:33N 46°36' E 031°49'8 8.1
2017-Feb-11 14:32N 46°35' E 031°37'5 0.2
2017-Feb-10 04:14N 46°35' E 031°29'0 0.0
2017-Feb-10 01:13N 46°35' E 031°29'0 0.0
2017-Feb-09 23:30N 46°35' E 031°29'0 0.0
2017-Feb-09 22:28N 46°35' E 031°29'0 0.0
2017-Feb-09 21:27N 46°35' E 031°29'0 0.0
2017-Feb-09 19:20N 46°35' E 031°29'2 0.2
2017-Feb-09 08:28N 46°35' E 031°32'5 3.9
2017-Feb-09 07:05N 46°35' E 031°24'4 6.1
2017-Feb-09 06:28N 46°35' E 031°18'15 7.2
2017-Feb-09 04:21N 46°31' E 030°57'  

Dump ship's entire track history